createdAt,value
2022-11-26T00:01:20.607Z,75.59
2022-11-26T00:03:49.426Z,75.90
2022-11-26T00:06:19.212Z,76.11
2022-11-26T00:08:46.066Z,75.88
2022-11-26T00:11:15.888Z,75.87
2022-11-26T00:13:42.797Z,76.13
2022-11-26T00:16:14.324Z,76.30
2022-11-26T00:18:43.467Z,76.15
2022-11-26T00:21:18.663Z,76.20
2022-11-26T00:23:46.040Z,76.18
2022-11-26T00:26:19.212Z,76.41
2022-11-26T00:29:00.266Z,76.51
2022-11-26T00:31:28.503Z,76.51
2022-11-26T00:33:55.548Z,77.08
2022-11-26T00:36:27.493Z,77.66
2022-11-26T00:39:03.365Z,77.98
2022-11-26T00:41:38.274Z,78.52
2022-11-26T00:44:17.004Z,78.46
2022-11-26T00:46:44.021Z,78.68
2022-11-26T00:49:10.965Z,78.85
2022-11-26T00:51:38.006Z,78.85
2022-11-26T00:54:05.862Z,78.92
2022-11-26T00:56:37.861Z,78.35
2022-11-26T00:59:05.863Z,77.84
2022-11-26T01:01:33.014Z,77.76
2022-11-26T01:04:00.380Z,78.01
2022-11-26T01:06:34.148Z,78.34
2022-11-26T01:09:02.227Z,78.44
2022-11-26T01:11:29.285Z,78.71
2022-11-26T01:13:56.656Z,78.79
2022-11-26T01:16:35.490Z,78.75
2022-11-26T01:19:03.370Z,79.19
2022-11-26T01:21:31.703Z,79.40
2022-11-26T01:23:58.632Z,79.61
2022-11-26T01:26:28.469Z,79.84
2022-11-26T01:28:55.940Z,80.18
2022-11-26T01:31:26.075Z,80.52
2022-11-26T01:33:54.223Z,80.69
2022-11-26T01:36:32.818Z,81.91
2022-11-26T01:39:20.687Z,83.95
2022-11-26T01:42:07.988Z,84.76
2022-11-26T01:44:37.254Z,85.80
2022-11-26T01:47:21.683Z,86.04
2022-11-26T01:50:26.145Z,85.97
2022-11-26T01:52:55.451Z,86.01
2022-11-26T01:55:22.518Z,86.26
2022-11-26T01:57:50.887Z,86.27
2022-11-26T02:00:17.984Z,85.54
2022-11-26T02:02:45.748Z,84.36
2022-11-26T02:05:22.624Z,83.63
2022-11-26T02:07:50.554Z,82.97
2022-11-26T02:10:17.720Z,82.82
2022-11-26T02:12:45.241Z,82.82
2022-11-26T02:15:12.663Z,82.79
2022-11-26T02:17:44.075Z,82.98
2022-11-26T02:20:23.102Z,84.08
2022-11-26T02:22:49.925Z,84.86
2022-11-26T02:25:27.132Z,86.95
2022-11-26T02:27:57.855Z,87.79
2022-11-26T02:30:30.584Z,88.52
2022-11-26T02:33:18.396Z,89.93
2022-11-26T02:35:49.228Z,89.74
2022-11-26T02:38:22.775Z,88.91
2022-11-26T02:40:50.535Z,87.90
2022-11-26T02:43:18.707Z,87.21
2022-11-26T02:45:54.328Z,86.39
2022-11-26T02:48:28.884Z,85.91
2022-11-26T02:51:00.708Z,85.54
2022-11-26T02:53:31.205Z,85.31
2022-11-26T02:56:09.075Z,85.31
2022-11-26T02:58:36.804Z,85.23
2022-11-26T03:01:09.622Z,85.42
2022-11-26T03:03:43.682Z,85.68
2022-11-26T03:06:13.848Z,85.81
2022-11-26T03:08:43.075Z,86.15
2022-11-26T03:11:10.022Z,86.45
2022-11-26T03:13:37.028Z,86.43
2022-11-26T03:16:04.606Z,86.41
2022-11-26T03:18:31.746Z,86.43
2022-11-26T03:20:58.585Z,86.92
2022-11-26T03:23:27.503Z,87.12
2022-11-26T03:25:54.674Z,87.57
2022-11-26T03:28:21.571Z,87.41
2022-11-26T03:30:52.637Z,87.37
2022-11-26T03:33:20.245Z,87.67
2022-11-26T03:35:48.987Z,87.38
2022-11-26T03:38:17.079Z,87.33
2022-11-26T03:40:44.036Z,87.32
2022-11-26T03:43:11.095Z,87.15
2022-11-26T03:45:38.038Z,87.28
2022-11-26T03:48:05.470Z,87.57
2022-11-26T03:50:32.374Z,87.98
2022-11-26T03:52:59.247Z,88.48
2022-11-26T03:55:26.270Z,89.49
2022-11-26T03:57:53.247Z,89.96
2022-11-26T04:00:20.821Z,90.16
2022-11-26T04:02:47.727Z,90.68
2022-11-26T04:05:14.716Z,91.23
2022-11-26T04:07:41.946Z,91.89
2022-11-26T04:10:09.264Z,92.02
2022-11-26T04:12:36.746Z,92.27
2022-11-26T04:15:04.089Z,92.38
2022-11-26T04:17:31.379Z,92.20
2022-11-26T04:19:58.234Z,91.73
2022-11-26T04:22:25.110Z,91.43
2022-11-26T04:24:52.099Z,91.28
2022-11-26T04:27:19.521Z,91.86
2022-11-26T04:29:46.687Z,91.98
2022-11-26T04:32:13.901Z,92.13
2022-11-26T04:34:40.944Z,91.87
2022-11-26T04:37:08.182Z,91.65
2022-11-26T04:39:36.090Z,91.29
2022-11-26T04:42:02.970Z,91.34
2022-11-26T04:44:30.023Z,91.17
2022-11-26T04:46:56.889Z,91.04
2022-11-26T04:49:23.981Z,91.09
2022-11-26T04:51:51.146Z,90.99
2022-11-26T04:54:18.017Z,90.67
2022-11-26T04:56:45.112Z,90.35
2022-11-26T04:59:12.199Z,89.85
2022-11-26T05:01:39.177Z,89.93
2022-11-26T05:04:06.151Z,90.11
2022-11-26T05:06:33.413Z,90.63
2022-11-26T05:09:00.629Z,90.88
2022-11-26T05:11:27.602Z,90.78
2022-11-26T05:13:54.620Z,90.98
2022-11-26T05:16:21.544Z,91.00
2022-11-26T05:18:48.466Z,90.98
2022-11-26T05:21:15.387Z,90.64
2022-11-26T05:23:42.261Z,90.39
2022-11-26T05:26:09.160Z,90.10
2022-11-26T05:28:36.056Z,89.92
2022-11-26T05:31:04.481Z,89.98
2022-11-26T05:33:31.642Z,89.83
2022-11-26T05:35:58.694Z,89.80
2022-11-26T05:38:25.772Z,89.42
2022-11-26T05:40:52.876Z,89.50
2022-11-26T05:43:20.054Z,89.78
2022-11-26T05:45:47.349Z,89.99
2022-11-26T05:48:14.470Z,90.99
2022-11-26T05:50:41.402Z,91.24
2022-11-26T05:53:08.495Z,91.92
2022-11-26T05:55:35.334Z,92.02
2022-11-26T05:58:02.247Z,92.05
2022-11-26T06:00:29.259Z,91.93
2022-11-26T06:02:56.403Z,91.72
2022-11-26T06:05:23.437Z,91.58
2022-11-26T06:07:50.523Z,91.01
2022-11-26T06:10:17.669Z,90.41
2022-11-26T06:12:44.588Z,90.22
2022-11-26T06:15:11.737Z,90.31
2022-11-26T06:17:38.735Z,90.42
2022-11-26T06:20:06.557Z,90.21
2022-11-26T06:22:38.567Z,89.79
2022-11-26T06:25:08.104Z,89.28
2022-11-26T06:27:36.930Z,88.85
2022-11-26T06:30:05.857Z,88.51
2022-11-26T06:32:32.881Z,88.33
2022-11-26T06:34:59.903Z,88.51
2022-11-26T06:37:27.078Z,88.19
2022-11-26T06:39:54.183Z,88.10
2022-11-26T06:42:21.357Z,87.66
2022-11-26T06:44:48.318Z,88.03
2022-11-26T06:47:15.343Z,87.86
2022-11-26T06:49:42.553Z,87.93
2022-11-26T06:52:09.448Z,87.44
2022-11-26T06:54:36.680Z,87.31
2022-11-26T06:57:04.004Z,87.13
2022-11-26T06:59:30.959Z,86.45
2022-11-26T07:01:58.176Z,86.10
2022-11-26T07:04:25.175Z,85.86
2022-11-26T07:06:52.109Z,85.98
2022-11-26T07:09:19.131Z,85.54
2022-11-26T07:11:50.203Z,84.34
2022-11-26T07:14:18.518Z,84.32
2022-11-26T07:16:45.422Z,84.71
2022-11-26T07:19:14.283Z,84.55
2022-11-26T07:21:41.214Z,85.15
2022-11-26T07:24:08.473Z,85.38
2022-11-26T07:26:35.479Z,85.57
2022-11-26T07:29:02.412Z,85.58
2022-11-26T07:31:29.603Z,85.03
2022-11-26T07:33:57.756Z,84.60
2022-11-26T07:36:27.054Z,84.06
2022-11-26T07:38:59.860Z,83.34
2022-11-26T07:41:28.358Z,82.66
2022-11-26T07:43:55.316Z,82.62
2022-11-26T07:46:24.796Z,81.20
2022-11-26T07:48:51.923Z,80.39
2022-11-26T07:51:24.823Z,80.37
2022-11-26T07:53:52.466Z,80.38
2022-11-26T07:56:19.913Z,80.35
2022-11-26T07:58:47.706Z,79.50
2022-11-26T08:01:19.783Z,79.72
2022-11-26T08:03:48.790Z,78.81
2022-11-26T08:06:19.017Z,78.92
2022-11-26T08:08:46.334Z,78.57
2022-11-26T08:11:20.075Z,78.13
2022-11-26T08:13:47.862Z,77.99
2022-11-26T08:16:15.406Z,77.06
2022-11-26T08:18:43.310Z,77.79
2022-11-26T08:21:10.687Z,78.17
2022-11-26T08:23:38.398Z,77.99
2022-11-26T08:28:59.592Z,77.57
2022-11-26T08:31:28.230Z,77.82
2022-11-26T08:34:03.089Z,77.41
2022-11-26T08:36:31.409Z,77.63
2022-11-26T08:38:59.853Z,77.47
2022-11-26T08:41:27.108Z,77.15
2022-11-26T08:44:09.381Z,77.11
2022-11-26T08:46:38.395Z,77.31
2022-11-26T08:49:07.782Z,78.02
2022-11-26T08:51:34.846Z,77.41
2022-11-26T08:54:02.233Z,77.28
2022-11-26T08:56:29.322Z,77.30
2022-11-26T08:58:56.266Z,76.81
2022-11-26T09:01:28.867Z,76.55
2022-11-26T09:03:58.658Z,76.05
2022-11-26T09:06:26.626Z,75.92
2022-11-26T09:09:12.695Z,75.36
2022-11-26T09:11:42.636Z,75.57
2022-11-26T09:14:10.765Z,74.46
2022-11-26T09:16:38.102Z,74.61
2022-11-26T09:19:06.632Z,74.02
2022-11-26T09:21:35.167Z,73.41
2022-11-26T09:24:02.962Z,72.51
2022-11-26T09:26:34.153Z,73.46
2022-11-26T09:29:01.472Z,72.68
2022-11-26T09:31:29.181Z,73.10
2022-11-26T09:33:58.079Z,73.56
2022-11-26T09:36:24.989Z,73.60
2022-11-26T09:38:56.280Z,73.66
2022-11-26T09:41:48.761Z,72.38
2022-11-26T09:44:26.954Z,72.97
2022-11-26T09:47:13.389Z,72.94
2022-11-26T09:49:52.508Z,72.83
2022-11-26T09:52:22.682Z,73.43
2022-11-26T09:54:56.315Z,73.47
2022-11-26T09:57:40.125Z,73.73
2022-11-26T10:00:21.783Z,73.86
2022-11-26T10:02:53.015Z,73.47
2022-11-26T10:05:37.414Z,73.02
2022-11-26T10:08:14.585Z,72.33
2022-11-26T10:11:13.954Z,71.96
2022-11-26T10:14:04.468Z,71.91
2022-11-26T10:17:07.246Z,71.81
2022-11-26T10:20:02.836Z,71.58
2022-11-26T10:22:57.140Z,71.44
2022-11-26T10:25:28.608Z,71.48
2022-11-26T10:27:57.366Z,70.82
2022-11-26T10:30:31.036Z,70.77
2022-11-26T10:33:02.499Z,70.47
2022-11-26T10:35:29.763Z,70.45
2022-11-26T10:37:57.650Z,70.26
2022-11-26T10:40:27.312Z,70.05
2022-11-26T10:43:08.316Z,69.83
2022-11-26T10:45:55.848Z,68.99
2022-11-26T10:48:31.316Z,68.16
2022-11-26T10:51:06.401Z,68.31
2022-11-26T10:53:54.910Z,68.45
2022-11-26T10:56:47.193Z,68.48
2022-11-26T10:59:25.892Z,68.22
2022-11-26T11:01:57.460Z,68.03
2022-11-26T11:04:30.861Z,68.36
2022-11-26T11:06:58.308Z,67.85
2022-11-26T11:09:36.744Z,68.30
2022-11-26T11:12:23.441Z,68.20
2022-11-26T11:14:51.994Z,67.65
2022-11-26T11:17:39.934Z,67.63
2022-11-26T11:20:29.489Z,66.86
2022-11-26T11:23:18.084Z,66.33
2022-11-26T11:25:56.414Z,66.79
2022-11-26T11:28:26.407Z,66.63
2022-11-26T11:31:04.760Z,65.44
2022-11-26T11:33:32.139Z,65.21
2022-11-26T11:36:03.401Z,65.48
2022-11-26T11:38:34.799Z,65.13
2022-11-26T11:41:05.317Z,64.97
2022-11-26T11:43:35.845Z,65.14
2022-11-26T11:46:13.357Z,65.61
2022-11-26T11:48:43.682Z,65.43
2022-11-26T11:51:35.304Z,65.12
2022-11-26T11:54:12.532Z,63.94
2022-11-26T11:57:14.969Z,64.05
2022-11-26T12:00:29.731Z,63.43
2022-11-26T12:03:43.233Z,62.13
2022-11-26T12:06:15.942Z,60.79
2022-11-26T12:09:07.929Z,61.15
2022-11-26T12:11:44.004Z,60.37
2022-11-26T12:14:32.524Z,60.56
2022-11-26T12:17:06.634Z,60.43
2022-11-26T12:19:52.832Z,60.28
2022-11-26T12:22:32.285Z,60.33
2022-11-26T12:25:03.159Z,59.14
2022-11-26T12:27:42.477Z,59.30
2022-11-26T12:30:22.174Z,59.44
2022-11-26T12:33:25.574Z,59.63
2022-11-26T12:36:01.204Z,59.31
2022-11-26T12:38:35.050Z,59.38
2022-11-26T12:41:08.246Z,59.31
2022-11-26T12:43:48.296Z,58.80
2022-11-26T12:46:52.487Z,58.21
2022-11-26T12:49:51.038Z,58.67
2022-11-26T12:52:29.186Z,59.42
2022-11-26T12:55:03.764Z,59.81
2022-11-26T12:57:37.208Z,59.34
2022-11-26T13:00:15.100Z,58.76
2022-11-26T13:02:45.329Z,58.60
2022-11-26T13:05:20.147Z,58.95
2022-11-26T13:08:02.244Z,59.27
2022-11-26T13:10:54.795Z,59.11
2022-11-26T13:13:58.411Z,59.19
2022-11-26T13:16:37.966Z,59.82
2022-11-26T13:19:19.808Z,59.78
2022-11-26T13:22:05.448Z,59.67
2022-11-26T13:24:58.081Z,59.46
2022-11-26T13:27:28.088Z,59.42
2022-11-26T13:30:18.168Z,59.09
2022-11-26T13:32:59.061Z,59.28
2022-11-26T13:35:47.841Z,59.26
2022-11-26T13:38:21.638Z,59.08
2022-11-26T13:41:10.126Z,58.76
2022-11-26T13:43:50.189Z,59.45
2022-11-26T13:46:31.187Z,59.87
2022-11-26T13:49:15.346Z,59.91
2022-11-26T13:51:53.351Z,60.19
2022-11-26T13:54:23.439Z,60.57
2022-11-26T13:57:13.929Z,60.87
2022-11-26T13:59:53.434Z,60.89
2022-11-26T14:02:32.723Z,61.14
2022-11-26T14:05:03.328Z,60.62
2022-11-26T14:07:30.965Z,60.76
2022-11-26T14:10:00.862Z,60.84
2022-11-26T14:13:02.403Z,61.14
2022-11-26T14:15:57.796Z,60.96
2022-11-26T14:18:50.522Z,60.55
2022-11-26T14:21:22.169Z,60.03
2022-11-26T14:23:52.143Z,61.51
2022-11-26T14:26:22.411Z,63.31
2022-11-26T14:28:49.309Z,63.01
2022-11-26T14:31:23.129Z,63.49
2022-11-26T14:33:54.051Z,63.32
2022-11-26T14:36:25.135Z,63.97
2022-11-26T14:39:12.049Z,63.70
2022-11-26T14:41:42.167Z,63.77
2022-11-26T14:44:15.149Z,63.18
2022-11-26T14:46:45.608Z,63.36
2022-11-26T14:49:18.687Z,64.89
2022-11-26T14:51:47.442Z,64.20
2022-11-26T14:54:33.278Z,63.88
2022-11-26T14:57:06.913Z,64.02
2022-11-26T14:59:34.094Z,65.55
2022-11-26T15:02:03.257Z,65.07
2022-11-26T15:04:40.118Z,65.08
2022-11-26T15:07:07.572Z,65.24
2022-11-26T15:09:36.858Z,65.76
2022-11-26T15:12:16.070Z,66.39
2022-11-26T15:17:49.250Z,66.85
2022-11-26T15:20:18.108Z,67.20
2022-11-26T15:22:51.720Z,67.60
2022-11-26T15:25:22.164Z,68.14
2022-11-26T15:27:59.143Z,68.65
2022-11-26T15:30:30.579Z,68.94
2022-11-26T15:33:00.413Z,69.77
2022-11-26T15:35:28.375Z,69.73
2022-11-26T15:37:55.675Z,69.97
2022-11-26T15:40:31.491Z,70.49
2022-11-26T15:43:04.379Z,70.53
2022-11-26T15:45:55.052Z,70.52
2022-11-26T15:48:53.717Z,70.78
2022-11-26T15:51:27.427Z,71.08
2022-11-26T15:53:58.065Z,71.33
2022-11-26T15:56:30.410Z,71.56
2022-11-26T15:59:00.815Z,71.74
2022-11-26T16:01:32.736Z,72.05
2022-11-26T16:04:04.581Z,72.79
2022-11-26T16:06:40.065Z,72.87
2022-11-26T16:09:12.523Z,73.21
2022-11-26T16:11:56.687Z,73.53
2022-11-26T16:14:32.426Z,73.92
2022-11-26T16:17:08.068Z,74.18
2022-11-26T16:19:37.472Z,74.31
2022-11-26T16:22:06.037Z,74.50
2022-11-26T16:24:42.656Z,75.30
2022-11-26T16:27:20.776Z,75.66
2022-11-26T16:29:48.232Z,75.88
2022-11-26T16:32:16.516Z,75.78
2022-11-26T16:34:44.330Z,75.78
2022-11-26T16:37:27.898Z,75.90
2022-11-26T16:40:04.094Z,76.01
2022-11-26T16:42:32.672Z,76.32
2022-11-26T16:45:03.875Z,76.37
2022-11-26T16:47:36.125Z,76.86
2022-11-26T16:50:03.875Z,76.67
2022-11-26T16:52:30.800Z,76.80
2022-11-26T16:54:57.849Z,77.02
2022-11-26T16:57:27.615Z,77.17
2022-11-26T17:00:02.209Z,77.50
2022-11-26T17:02:29.434Z,77.54
2022-11-26T17:04:56.363Z,77.38
2022-11-26T17:07:30.341Z,77.55
2022-11-26T17:09:57.555Z,77.78
2022-11-26T17:12:25.608Z,78.06
2022-11-26T17:17:25.273Z,78.38
2022-11-26T17:19:52.872Z,78.30
2022-11-26T17:22:20.311Z,78.45
2022-11-26T17:24:47.184Z,78.33
2022-11-26T17:27:16.716Z,78.11
2022-11-26T17:29:45.722Z,77.89
2022-11-26T17:32:20.132Z,77.65
2022-11-26T17:34:48.130Z,77.97
2022-11-26T17:37:19.617Z,77.89
2022-11-26T17:39:46.754Z,77.42
2022-11-26T17:42:13.598Z,77.45
2022-11-26T17:44:40.750Z,77.49
2022-11-26T17:47:17.332Z,77.40
2022-11-26T17:49:45.789Z,77.25
2022-11-26T17:52:13.672Z,77.49
2022-11-26T17:54:41.148Z,77.67
2022-11-26T17:57:09.426Z,77.95
2022-11-26T17:59:36.636Z,78.01
2022-11-26T18:02:04.154Z,78.12
2022-11-26T18:04:31.076Z,77.81
2022-11-26T18:07:08.311Z,78.09
2022-11-26T18:09:35.333Z,78.23
2022-11-26T18:12:03.354Z,78.36
2022-11-26T18:14:30.656Z,78.41
2022-11-26T18:16:57.647Z,78.49
2022-11-26T18:19:26.163Z,78.83
2022-11-26T18:21:53.245Z,78.97
2022-11-26T18:24:20.722Z,79.29
2022-11-26T18:26:47.717Z,79.03
2022-11-26T18:29:14.624Z,79.21
2022-11-26T18:31:41.631Z,79.10
2022-11-26T18:34:08.584Z,79.13
2022-11-26T18:36:35.566Z,78.99
2022-11-26T18:39:04.886Z,78.98
2022-11-26T18:41:32.268Z,79.00
2022-11-26T18:43:59.124Z,78.72
2022-11-26T18:46:26.164Z,78.77
2022-11-26T18:48:53.099Z,78.74
2022-11-26T18:51:20.172Z,78.82
2022-11-26T18:53:47.471Z,78.94
2022-11-26T18:56:19.444Z,78.98
2022-11-26T18:58:46.477Z,78.93
2022-11-26T19:01:18.902Z,78.88
2022-11-26T19:03:46.375Z,79.15
2022-11-26T19:06:22.546Z,78.95
2022-11-26T19:08:50.902Z,79.05
2022-11-26T19:11:20.757Z,79.04
2022-11-26T19:13:48.340Z,79.30
2022-11-26T19:16:17.326Z,79.37
2022-11-26T19:18:45.741Z,79.22
2022-11-26T19:21:29.263Z,79.35
2022-11-26T19:23:58.576Z,79.73
2022-11-26T19:26:25.429Z,79.93
2022-11-26T19:28:52.773Z,80.09
2022-11-26T19:31:22.451Z,80.17
2022-11-26T19:34:01.124Z,80.28
2022-11-26T19:36:29.806Z,80.32
2022-11-26T19:38:58.597Z,80.22
2022-11-26T19:41:26.235Z,80.29
2022-11-26T19:43:53.540Z,80.21
2022-11-26T19:46:24.209Z,80.17
2022-11-26T19:48:52.829Z,80.02
2022-11-26T19:51:21.645Z,79.74
2022-11-26T19:53:50.986Z,79.92
2022-11-26T19:56:20.951Z,79.92
2022-11-26T19:58:48.666Z,79.73
2022-11-26T20:01:18.834Z,80.06
2022-11-26T20:03:46.027Z,80.17
2022-11-26T20:06:19.390Z,80.10
2022-11-26T20:08:47.648Z,80.16
2022-11-26T20:11:16.421Z,80.20
2022-11-26T20:13:45.256Z,80.31
2022-11-26T20:16:17.251Z,80.04
2022-11-26T20:18:44.457Z,80.43
2022-11-26T20:21:14.454Z,80.29
2022-11-26T20:23:42.271Z,80.73
2022-11-26T20:26:19.728Z,82.02
2022-11-26T20:28:48.037Z,81.72
2022-11-26T20:31:20.695Z,82.11
2022-11-26T20:33:51.520Z,80.49
2022-11-26T20:36:21.002Z,79.82
2022-11-26T20:38:52.572Z,79.76
2022-11-26T20:41:20.185Z,79.27
2022-11-26T20:43:47.274Z,79.22
2022-11-26T20:46:34.364Z,79.09
2022-11-26T20:49:01.411Z,79.23
2022-11-26T20:51:28.486Z,80.99
2022-11-26T20:53:59.261Z,80.08
2022-11-26T20:56:26.608Z,79.65
2022-11-26T20:58:54.047Z,79.26
2022-11-26T21:01:25.458Z,79.25
2022-11-26T21:03:53.796Z,79.08
2022-11-26T21:06:29.050Z,79.38
2022-11-26T21:08:59.782Z,79.57
2022-11-26T21:11:27.538Z,79.76
2022-11-26T21:13:54.958Z,79.95
2022-11-26T21:16:23.348Z,80.03
2022-11-26T21:18:53.134Z,80.25
2022-11-26T21:21:20.550Z,80.18
2022-11-26T21:23:47.507Z,80.83
2022-11-26T21:26:19.858Z,81.21
2022-11-26T21:28:55.376Z,81.49
2022-11-26T21:31:23.250Z,81.55
2022-11-26T21:34:03.345Z,81.65
2022-11-26T21:36:31.938Z,81.53
2022-11-26T21:38:58.951Z,81.85
2022-11-26T21:41:26.654Z,81.64
2022-11-26T21:43:54.187Z,81.38
2022-11-26T21:46:26.365Z,81.81
2022-11-26T21:48:55.059Z,81.63
2022-11-26T21:51:23.988Z,81.87
2022-11-26T21:53:52.983Z,81.72
2022-11-26T21:56:22.647Z,81.63
2022-11-26T21:58:50.598Z,81.64
2022-11-26T22:01:31.556Z,81.80
2022-11-26T22:04:02.396Z,81.65
2022-11-26T22:06:31.316Z,81.64
2022-11-26T22:08:58.596Z,81.79
2022-11-26T22:11:31.493Z,81.97
2022-11-26T22:13:58.825Z,81.90
2022-11-26T22:16:27.279Z,81.97
2022-11-26T22:18:56.386Z,82.00
2022-11-26T22:21:26.366Z,82.32
2022-11-26T22:23:53.696Z,82.30
2022-11-26T22:26:21.438Z,82.72
2022-11-26T22:28:49.715Z,83.05
2022-11-26T22:31:31.353Z,83.33
2022-11-26T22:34:04.848Z,83.66
2022-11-26T22:36:32.804Z,84.40
2022-11-26T22:39:01.939Z,84.99
2022-11-26T22:41:29.108Z,85.31
2022-11-26T22:43:57.763Z,85.84
2022-11-26T22:46:24.836Z,86.04
2022-11-26T22:48:57.411Z,86.36
2022-11-26T22:51:25.627Z,86.55
2022-11-26T22:53:57.355Z,87.15
2022-11-26T22:56:25.563Z,87.33
2022-11-26T22:58:52.734Z,88.03
2022-11-26T23:01:26.725Z,88.32
2022-11-26T23:03:55.030Z,88.48
2022-11-26T23:06:24.196Z,88.38
2022-11-26T23:08:52.241Z,88.22
2022-11-26T23:11:26.758Z,88.59
2022-11-26T23:13:55.042Z,88.16
2022-11-26T23:16:24.704Z,88.59
2022-11-26T23:18:53.912Z,89.36
2022-11-26T23:21:23.670Z,89.62
2022-11-26T23:23:51.414Z,89.88
2022-11-26T23:26:26.855Z,90.00
2022-11-26T23:28:59.223Z,90.48
2022-11-26T23:31:28.754Z,90.49
2022-11-26T23:33:55.816Z,90.69
2022-11-26T23:36:23.698Z,91.15
2022-11-26T23:38:50.586Z,91.02
2022-11-26T23:41:17.861Z,91.23
2022-11-26T23:43:45.490Z,90.89
2022-11-26T23:46:28.284Z,90.37
2022-11-26T23:48:55.864Z,90.71
2022-11-26T23:51:25.424Z,90.16
2022-11-26T23:53:53.172Z,90.16
2022-11-26T23:56:26.144Z,90.77
2022-11-26T23:58:55.613Z,91.09
